sensor_id;sensor_type;location;lat;lon;timestamp;temperature;humidity
13205;DHT22;6667;52.634;9.226;2023-08-17T08:58:23;17.30;99.90
13205;DHT22;6667;52.634;9.226;2023-08-17T09:00:52;17.40;99.90
13205;DHT22;6667;52.634;9.226;2023-08-17T09:03:19;17.30;99.90
13205;DHT22;6667;52.634;9.226;2023-08-17T09:05:47;17.30;99.90
13205;DHT22;6667;52.634;9.226;2023-08-17T09:08:15;17.30;99.90
13205;DHT22;6667;52.634;9.226;2023-08-17T09:10:42;17.40;99.90
13205;DHT22;6667;52.634;9.226;2023-08-17T09:13:10;17.40;99.90
13205;DHT22;6667;52.634;9.226;2023-08-17T09:15:38;17.40;99.90
13205;DHT22;6667;52.634;9.226;2023-08-17T09:18:05;17.30;99.90
13205;DHT22;6667;52.634;9.226;2023-08-17T09:20:37;17.20;99.90
13205;DHT22;6667;52.634;9.226;2023-08-17T09:23:09;17.30;99.90
13205;DHT22;6667;52.634;9.226;2023-08-17T09:25:38;17.20;99.90
13205;DHT22;6667;52.634;9.226;2023-08-17T09:28:07;17.20;99.90
13205;DHT22;6667;52.634;9.226;2023-08-17T09:30:50;17.10;99.90
13205;DHT22;6667;52.634;9.226;2023-08-17T09:33:18;17.00;99.90
13205;DHT22;6667;52.634;9.226;2023-08-17T09:35:45;17.00;99.90
13205;DHT22;6667;52.634;9.226;2023-08-17T09:38:12;17.10;99.90
13205;DHT22;6667;52.634;9.226;2023-08-17T09:40:39;17.10;99.90
13205;DHT22;6667;52.634;9.226;2023-08-17T09:43:06;17.10;99.90
13205;DHT22;6667;52.634;9.226;2023-08-17T09:45:33;16.90;99.90
13205;DHT22;6667;52.634;9.226;2023-08-17T09:48:01;16.90;99.90
13205;DHT22;6667;52.634;9.226;2023-08-17T09:50:28;16.90;99.90
13205;DHT22;6667;52.634;9.226;2023-08-17T09:52:55;16.90;99.90
13205;DHT22;6667;52.634;9.226;2023-08-17T09:55:22;16.80;99.90
13205;DHT22;6667;52.634;9.226;2023-08-17T09:57:49;16.80;99.90
13205;DHT22;6667;52.634;9.226;2023-08-17T10:00:17;16.80;99.90
13205;DHT22;6667;52.634;9.226;2023-08-17T10:02:45;16.80;99.90
13205;DHT22;6667;52.634;9.226;2023-08-17T10:05:16;16.90;99.90
13205;DHT22;6667;52.634;9.226;2023-08-17T10:07:47;16.90;99.90
13205;DHT22;6667;52.634;9.226;2023-08-17T10:10:18;16.90;99.90
13205;DHT22;6667;52.634;9.226;2023-08-17T10:12:51;17.10;99.90
13205;DHT22;6667;52.634;9.226;2023-08-17T10:15:19;17.10;99.90
13205;DHT22;6667;52.634;9.226;2023-08-17T10:17:55;17.00;99.90
13205;DHT22;6667;52.634;9.226;2023-08-17T10:20:26;17.00;99.90
13205;DHT22;6667;52.634;9.226;2023-08-17T10:23:02;17.10;99.90
13205;DHT22;6667;52.634;9.226;2023-08-17T10:25:34;17.10;99.90
13205;DHT22;6667;52.634;9.226;2023-08-17T10:28:02;17.20;99.90
13205;DHT22;6667;52.634;9.226;2023-08-17T10:30:29;17.10;99.90
13205;DHT22;6667;52.634;9.226;2023-08-17T10:32:56;17.10;99.90
13205;DHT22;6667;52.634;9.226;2023-08-17T10:35:24;17.10;99.90
13205;DHT22;6667;52.634;9.226;2023-08-17T10:37:53;17.10;99.90
13205;DHT22;6667;52.634;9.226;2023-08-17T10:40:25;17.00;99.90
13205;DHT22;6667;52.634;9.226;2023-08-17T10:42:54;17.20;99.90
13205;DHT22;6667;52.634;9.226;2023-08-17T10:45:28;17.20;99.90
13205;DHT22;6667;52.634;9.226;2023-08-17T10:48:29;17.40;99.90
13205;DHT22;6667;52.634;9.226;2023-08-17T10:51:02;17.30;99.90
13205;DHT22;6667;52.634;9.226;2023-08-17T10:53:36;17.40;99.90
13205;DHT22;6667;52.634;9.226;2023-08-17T10:56:07;17.50;99.90
13205;DHT22;6667;52.634;9.226;2023-08-17T10:58:34;17.60;99.90
13205;DHT22;6667;52.634;9.226;2023-08-17T11:01:01;17.60;99.90
13205;DHT22;6667;52.634;9.226;2023-08-17T11:03:28;17.60;99.90
13205;DHT22;6667;52.634;9.226;2023-08-17T11:05:55;17.60;99.90
13205;DHT22;6667;52.634;9.226;2023-08-17T11:08:23;17.40;99.90
13205;DHT22;6667;52.634;9.226;2023-08-17T11:11:01;17.30;99.90
13205;DHT22;6667;52.634;9.226;2023-08-17T11:13:30;17.30;99.90
13205;DHT22;6667;52.634;9.226;2023-08-17T11:15:58;17.40;99.90
13205;DHT22;6667;52.634;9.226;2023-08-17T11:18:25;17.50;99.90
13205;DHT22;6667;52.634;9.226;2023-08-17T11:20:53;17.50;99.90
13205;DHT22;6667;52.634;9.226;2023-08-17T11:23:20;17.50;99.90
13205;DHT22;6667;52.634;9.226;2023-08-17T11:25:47;17.70;99.90
13205;DHT22;6667;52.634;9.226;2023-08-17T11:28:15;17.60;99.90
13205;DHT22;6667;52.634;9.226;2023-08-17T11:30:42;17.50;99.90
13205;DHT22;6667;52.634;9.226;2023-08-17T11:33:09;17.50;99.90
13205;DHT22;6667;52.634;9.226;2023-08-17T11:35:36;17.50;99.90
13205;DHT22;6667;52.634;9.226;2023-08-17T11:38:05;17.50;99.90
13205;DHT22;6667;52.634;9.226;2023-08-17T11:40:32;17.50;99.90
13205;DHT22;6667;52.634;9.226;2023-08-17T11:42:59;17.40;99.90
13205;DHT22;6667;52.634;9.226;2023-08-17T11:45:27;17.40;99.90
13205;DHT22;6667;52.634;9.226;2023-08-17T11:47:54;17.40;99.90
13205;DHT22;6667;52.634;9.226;2023-08-17T11:50:21;17.30;99.90
13205;DHT22;6667;52.634;9.226;2023-08-17T11:52:47;17.30;99.90
13205;DHT22;6667;52.634;9.226;2023-08-17T11:55:16;17.40;99.90
13205;DHT22;6667;52.634;9.226;2023-08-17T11:57:44;17.40;99.90
13205;DHT22;6667;52.634;9.226;2023-08-17T12:00:17;17.40;99.90
13205;DHT22;6667;52.634;9.226;2023-08-17T12:02:46;17.40;99.90
13205;DHT22;6667;52.634;9.226;2023-08-17T12:05:13;17.40;99.90
13205;DHT22;6667;52.634;9.226;2023-08-17T12:07:40;17.40;99.90
13205;DHT22;6667;52.634;9.226;2023-08-17T12:10:07;17.30;99.90
13205;DHT22;6667;52.634;9.226;2023-08-17T12:12:37;17.40;99.90
13205;DHT22;6667;52.634;9.226;2023-08-17T12:15:05;17.40;99.90
13205;DHT22;6667;52.634;9.226;2023-08-17T12:17:32;17.50;99.90
13205;DHT22;6667;52.634;9.226;2023-08-17T12:20:00;17.40;99.90
13205;DHT22;6667;52.634;9.226;2023-08-17T12:22:27;17.30;99.90
13205;DHT22;6667;52.634;9.226;2023-08-17T12:24:54;17.30;99.90
13205;DHT22;6667;52.634;9.226;2023-08-17T12:27:22;17.10;99.90
13205;DHT22;6667;52.634;9.226;2023-08-17T12:29:49;17.10;99.90
13205;DHT22;6667;52.634;9.226;2023-08-17T12:32:18;17.20;99.90
13205;DHT22;6667;52.634;9.226;2023-08-17T12:34:45;17.30;99.90
13205;DHT22;6667;52.634;9.226;2023-08-17T12:37:19;17.20;99.90
13205;DHT22;6667;52.634;9.226;2023-08-17T12:39:46;17.20;99.90
13205;DHT22;6667;52.634;9.226;2023-08-17T12:42:13;17.30;99.90
13205;DHT22;6667;52.634;9.226;2023-08-17T12:44:40;17.10;99.90
13205;DHT22;6667;52.634;9.226;2023-08-17T12:47:07;17.10;99.90
13205;DHT22;6667;52.634;9.226;2023-08-17T12:49:35;17.10;99.90
13205;DHT22;6667;52.634;9.226;2023-08-17T12:52:02;17.10;99.90
13205;DHT22;6667;52.634;9.226;2023-08-17T12:54:31;17.20;99.90
13205;DHT22;6667;52.634;9.226;2023-08-17T12:56:57;17.10;99.90
13205;DHT22;6667;52.634;9.226;2023-08-17T12:59:24;17.00;99.90
13205;DHT22;6667;52.634;9.226;2023-08-17T13:01:51;17.00;99.90
13205;DHT22;6667;52.634;9.226;2023-08-17T13:04:18;17.10;99.90
13205;DHT22;6667;52.634;9.226;2023-08-17T13:06:45;17.30;99.90
13205;DHT22;6667;52.634;9.226;2023-08-17T13:09:13;17.40;99.90
13205;DHT22;6667;52.634;9.226;2023-08-17T13:11:42;17.40;99.90
13205;DHT22;6667;52.634;9.226;2023-08-17T13:14:09;17.30;99.90
13205;DHT22;6667;52.634;9.226;2023-08-17T13:16:36;17.40;99.90
13205;DHT22;6667;52.634;9.226;2023-08-17T13:19:02;17.50;99.90
13205;DHT22;6667;52.634;9.226;2023-08-17T13:21:29;17.50;99.90
13205;DHT22;6667;52.634;9.226;2023-08-17T13:23:56;17.50;99.90
13205;DHT22;6667;52.634;9.226;2023-08-17T13:26:23;17.40;99.90
13205;DHT22;6667;52.634;9.226;2023-08-17T13:28:51;17.40;99.90
13205;DHT22;6667;52.634;9.226;2023-08-17T13:31:17;17.40;99.90
13205;DHT22;6667;52.634;9.226;2023-08-17T13:33:44;17.30;99.90
13205;DHT22;6667;52.634;9.226;2023-08-17T13:36:11;17.40;99.90
13205;DHT22;6667;52.634;9.226;2023-08-17T13:38:38;17.60;99.90
13205;DHT22;6667;52.634;9.226;2023-08-17T13:41:05;17.40;99.90
13205;DHT22;6667;52.634;9.226;2023-08-17T13:43:31;17.40;99.90
13205;DHT22;6667;52.634;9.226;2023-08-17T13:45:59;17.40;99.90
13205;DHT22;6667;52.634;9.226;2023-08-17T13:48:26;17.40;99.90
13205;DHT22;6667;52.634;9.226;2023-08-17T13:50:53;17.40;99.90
13205;DHT22;6667;52.634;9.226;2023-08-17T13:53:19;17.40;99.90
13205;DHT22;6667;52.634;9.226;2023-08-17T13:55:46;17.40;99.90
13205;DHT22;6667;52.634;9.226;2023-08-17T13:58:13;17.30;99.90
13205;DHT22;6667;52.634;9.226;2023-08-17T14:00:41;17.30;99.90
13205;DHT22;6667;52.634;9.226;2023-08-17T14:03:09;17.40;99.90
13205;DHT22;6667;52.634;9.226;2023-08-17T14:05:35;17.40;99.90
13205;DHT22;6667;52.634;9.226;2023-08-17T14:08:02;17.30;99.90
13205;DHT22;6667;52.634;9.226;2023-08-17T14:10:29;17.30;99.90
13205;DHT22;6667;52.634;9.226;2023-08-17T14:12:56;17.20;99.90
13205;DHT22;6667;52.634;9.226;2023-08-17T14:15:23;17.20;99.90
13205;DHT22;6667;52.634;9.226;2023-08-17T14:17:49;17.20;99.90
13205;DHT22;6667;52.634;9.226;2023-08-17T14:20:17;17.20;99.90
13205;DHT22;6667;52.634;9.226;2023-08-17T14:22:44;17.20;99.90
13205;DHT22;6667;52.634;9.226;2023-08-17T14:25:11;17.10;99.90
13205;DHT22;6667;52.634;9.226;2023-08-17T14:27:38;17.10;99.90
13205;DHT22;6667;52.634;9.226;2023-08-17T14:30:05;17.00;99.90
13205;DHT22;6667;52.634;9.226;2023-08-17T14:32:32;17.10;99.90
13205;DHT22;6667;52.634;9.226;2023-08-17T14:34:59;17.30;99.90
13205;DHT22;6667;52.634;9.226;2023-08-17T14:37:27;17.20;99.90
13205;DHT22;6667;52.634;9.226;2023-08-17T14:39:54;17.10;99.90
13205;DHT22;6667;52.634;9.226;2023-08-17T14:42:20;17.00;99.90
13205;DHT22;6667;52.634;9.226;2023-08-17T14:44:48;17.00;99.90
13205;DHT22;6667;52.634;9.226;2023-08-17T14:47:15;17.00;99.90
13205;DHT22;6667;52.634;9.226;2023-08-17T14:49:42;17.10;99.90
13205;DHT22;6667;52.634;9.226;2023-08-17T14:52:08;17.20;99.90
13205;DHT22;6667;52.634;9.226;2023-08-17T14:54:37;17.30;99.90
13205;DHT22;6667;52.634;9.226;2023-08-17T14:57:03;17.40;99.90
13205;DHT22;6667;52.634;9.226;2023-08-17T14:59:30;17.30;99.90
13205;DHT22;6667;52.634;9.226;2023-08-17T15:01:57;17.30;99.90
13205;DHT22;6667;52.634;9.226;2023-08-17T15:04:23;17.30;99.90
13205;DHT22;6667;52.634;9.226;2023-08-17T15:06:50;17.30;99.90
13205;DHT22;6667;52.634;9.226;2023-08-17T15:09:17;17.30;99.90
13205;DHT22;6667;52.634;9.226;2023-08-17T15:11:45;17.30;99.90
13205;DHT22;6667;52.634;9.226;2023-08-17T15:14:12;17.20;99.90
13205;DHT22;6667;52.634;9.226;2023-08-17T15:16:38;17.20;99.90
13205;DHT22;6667;52.634;9.226;2023-08-17T15:19:05;17.20;99.90
13205;DHT22;6667;52.634;9.226;2023-08-17T15:21:32;17.30;99.90
13205;DHT22;6667;52.634;9.226;2023-08-17T15:23:59;17.40;99.90
13205;DHT22;6667;52.634;9.226;2023-08-17T15:26:25;17.30;99.90
13205;DHT22;6667;52.634;9.226;2023-08-17T15:28:53;17.30;99.90
13205;DHT22;6667;52.634;9.226;2023-08-17T15:31:20;17.30;99.90
13205;DHT22;6667;52.634;9.226;2023-08-17T15:33:47;17.30;99.90
13205;DHT22;6667;52.634;9.226;2023-08-17T15:36:13;17.40;99.90
13205;DHT22;6667;52.634;9.226;2023-08-17T15:38:43;17.50;99.90
13205;DHT22;6667;52.634;9.226;2023-08-17T15:41:10;17.50;99.90
13205;DHT22;6667;52.634;9.226;2023-08-17T15:43:37;17.40;99.90
13205;DHT22;6667;52.634;9.226;2023-08-17T15:46:05;17.30;99.90
13205;DHT22;6667;52.634;9.226;2023-08-17T15:48:32;17.30;99.90
13205;DHT22;6667;52.634;9.226;2023-08-17T15:50:58;17.30;99.90
13205;DHT22;6667;52.634;9.226;2023-08-17T15:53:25;17.40;99.90
13205;DHT22;6667;52.634;9.226;2023-08-17T15:55:52;17.30;99.90
13205;DHT22;6667;52.634;9.226;2023-08-17T15:58:19;17.30;99.90
13205;DHT22;6667;52.634;9.226;2023-08-17T16:00:45;17.30;99.90
13205;DHT22;6667;52.634;9.226;2023-08-17T16:03:14;17.20;99.90
13205;DHT22;6667;52.634;9.226;2023-08-17T16:05:41;17.20;99.90
13205;DHT22;6667;52.634;9.226;2023-08-17T16:08:07;17.20;99.90
13205;DHT22;6667;52.634;9.226;2023-08-17T16:10:34;17.20;99.90
13205;DHT22;6667;52.634;9.226;2023-08-17T16:13:02;17.20;99.90
13205;DHT22;6667;52.634;9.226;2023-08-17T16:15:29;17.20;99.90
13205;DHT22;6667;52.634;9.226;2023-08-17T16:17:56;17.20;99.90
13205;DHT22;6667;52.634;9.226;2023-08-17T16:20:24;17.20;99.90
13205;DHT22;6667;52.634;9.226;2023-08-17T16:22:54;17.20;99.90
13205;DHT22;6667;52.634;9.226;2023-08-17T16:25:21;17.20;99.90
13205;DHT22;6667;52.634;9.226;2023-08-17T16:27:48;17.20;99.90
13205;DHT22;6667;52.634;9.226;2023-08-17T16:30:21;17.20;99.90
13205;DHT22;6667;52.634;9.226;2023-08-17T16:32:48;17.10;99.90
13205;DHT22;6667;52.634;9.226;2023-08-17T16:38:19;17.20;99.90
13205;DHT22;6667;52.634;9.226;2023-08-17T16:40:46;17.20;99.90
13205;DHT22;6667;52.634;9.226;2023-08-17T16:43:18;17.20;99.90
13205;DHT22;6667;52.634;9.226;2023-08-17T16:45:46;17.20;99.90
13205;DHT22;6667;52.634;9.226;2023-08-17T16:48:13;17.20;99.90
13205;DHT22;6667;52.634;9.226;2023-08-17T16:50:40;17.20;99.90
13205;DHT22;6667;52.634;9.226;2023-08-17T16:53:14;17.30;99.90
13205;DHT22;6667;52.634;9.226;2023-08-17T16:55:42;17.30;99.90
13205;DHT22;6667;52.634;9.226;2023-08-17T16:58:09;17.20;99.90
13205;DHT22;6667;52.634;9.226;2023-08-17T17:00:36;17.20;99.90
13205;DHT22;6667;52.634;9.226;2023-08-17T17:03:03;17.30;99.90
13205;DHT22;6667;52.634;9.226;2023-08-17T17:05:30;17.30;99.90
13205;DHT22;6667;52.634;9.226;2023-08-17T17:07:56;17.20;99.90
13205;DHT22;6667;52.634;9.226;2023-08-17T17:10:23;17.30;99.90
13205;DHT22;6667;52.634;9.226;2023-08-17T17:12:57;17.30;99.90
13205;DHT22;6667;52.634;9.226;2023-08-17T17:15:25;17.20;99.90
13205;DHT22;6667;52.634;9.226;2023-08-17T17:17:52;17.30;99.90
13205;DHT22;6667;52.634;9.226;2023-08-17T17:20:19;17.30;99.90
13205;DHT22;6667;52.634;9.226;2023-08-17T17:22:46;17.30;99.90
13205;DHT22;6667;52.634;9.226;2023-08-17T17:25:13;17.20;99.90
13205;DHT22;6667;52.634;9.226;2023-08-17T17:27:40;17.20;99.90
13205;DHT22;6667;52.634;9.226;2023-08-17T17:30:09;17.20;99.90
13205;DHT22;6667;52.634;9.226;2023-08-17T17:32:36;17.20;99.90
13205;DHT22;6667;52.634;9.226;2023-08-17T17:35:03;17.10;99.90
13205;DHT22;6667;52.634;9.226;2023-08-17T17:37:30;17.10;99.90
13205;DHT22;6667;52.634;9.226;2023-08-17T17:39:57;17.10;99.90
13205;DHT22;6667;52.634;9.226;2023-08-17T17:42:23;17.20;99.90
13205;DHT22;6667;52.634;9.226;2023-08-17T17:44:50;17.20;99.90
13205;DHT22;6667;52.634;9.226;2023-08-17T17:47:18;17.10;99.90
13205;DHT22;6667;52.634;9.226;2023-08-17T17:49:45;17.10;99.90
13205;DHT22;6667;52.634;9.226;2023-08-17T17:52:12;17.10;99.90
13205;DHT22;6667;52.634;9.226;2023-08-17T17:54:39;17.10;99.90
13205;DHT22;6667;52.634;9.226;2023-08-17T17:57:06;17.00;99.90
13205;DHT22;6667;52.634;9.226;2023-08-17T17:59:32;17.00;99.90
13205;DHT22;6667;52.634;9.226;2023-08-17T18:01:59;17.00;99.90
13205;DHT22;6667;52.634;9.226;2023-08-17T18:04:27;17.00;99.90
13205;DHT22;6667;52.634;9.226;2023-08-17T18:06:54;17.10;99.90
13205;DHT22;6667;52.634;9.226;2023-08-17T18:09:21;17.10;99.90
13205;DHT22;6667;52.634;9.226;2023-08-17T18:11:48;17.10;99.90
13205;DHT22;6667;52.634;9.226;2023-08-17T18:14:14;17.00;99.90
13205;DHT22;6667;52.634;9.226;2023-08-17T18:16:43;17.00;99.90
13205;DHT22;6667;52.634;9.226;2023-08-17T18:19:10;16.90;99.90
13205;DHT22;6667;52.634;9.226;2023-08-17T18:21:38;16.90;99.90
13205;DHT22;6667;52.634;9.226;2023-08-17T18:24:05;17.00;99.90
13205;DHT22;6667;52.634;9.226;2023-08-17T18:26:32;17.00;99.90
13205;DHT22;6667;52.634;9.226;2023-08-17T18:28:59;17.00;99.90
13205;DHT22;6667;52.634;9.226;2023-08-17T18:31:26;17.00;99.90
13205;DHT22;6667;52.634;9.226;2023-08-17T18:33:55;16.90;99.90
13205;DHT22;6667;52.634;9.226;2023-08-17T18:36:22;17.00;99.90
13205;DHT22;6667;52.634;9.226;2023-08-17T18:38:50;17.00;99.90
13205;DHT22;6667;52.634;9.226;2023-08-17T18:41:17;16.90;99.90
13205;DHT22;6667;52.634;9.226;2023-08-17T18:43:44;16.90;99.90
13205;DHT22;6667;52.634;9.226;2023-08-17T18:46:20;16.90;99.90
13205;DHT22;6667;52.634;9.226;2023-08-17T18:48:46;16.90;99.90
13205;DHT22;6667;52.634;9.226;2023-08-17T18:51:13;16.90;99.90
13205;DHT22;6667;52.634;9.226;2023-08-17T18:53:41;16.90;99.90
13205;DHT22;6667;52.634;9.226;2023-08-17T18:56:09;16.90;99.90
13205;DHT22;6667;52.634;9.226;2023-08-17T18:58:36;16.90;99.90
13205;DHT22;6667;52.634;9.226;2023-08-17T19:01:03;16.90;99.90
13205;DHT22;6667;52.634;9.226;2023-08-17T19:03:30;16.90;99.90
13205;DHT22;6667;52.634;9.226;2023-08-17T19:05:56;16.90;99.90
13205;DHT22;6667;52.634;9.226;2023-08-17T19:08:23;16.90;99.90
13205;DHT22;6667;52.634;9.226;2023-08-17T19:10:50;16.90;99.90
13205;DHT22;6667;52.634;9.226;2023-08-17T19:13:18;16.90;99.90
13205;DHT22;6667;52.634;9.226;2023-08-17T19:15:44;16.90;99.90
13205;DHT22;6667;52.634;9.226;2023-08-17T19:18:11;16.90;99.90
13205;DHT22;6667;52.634;9.226;2023-08-17T19:20:38;16.90;99.90
13205;DHT22;6667;52.634;9.226;2023-08-17T19:23:05;16.90;99.90
13205;DHT22;6667;52.634;9.226;2023-08-17T19:25:32;16.90;99.90
13205;DHT22;6667;52.634;9.226;2023-08-17T19:27:58;16.90;99.90
13205;DHT22;6667;52.634;9.226;2023-08-17T19:30:26;16.90;99.90
13205;DHT22;6667;52.634;9.226;2023-08-17T19:32:57;16.90;99.90
13205;DHT22;6667;52.634;9.226;2023-08-17T19:35:24;16.90;99.90
13205;DHT22;6667;52.634;9.226;2023-08-17T19:37:52;16.90;99.90
13205;DHT22;6667;52.634;9.226;2023-08-17T19:40:19;16.90;99.90
13205;DHT22;6667;52.634;9.226;2023-08-17T19:42:47;16.90;99.90
13205;DHT22;6667;52.634;9.226;2023-08-17T19:45:14;16.90;99.90
13205;DHT22;6667;52.634;9.226;2023-08-17T19:47:42;16.90;99.90
13205;DHT22;6667;52.634;9.226;2023-08-17T19:50:10;16.90;99.90
13205;DHT22;6667;52.634;9.226;2023-08-17T19:52:36;16.90;99.90
13205;DHT22;6667;52.634;9.226;2023-08-17T19:55:04;16.90;99.90
13205;DHT22;6667;52.634;9.226;2023-08-17T19:57:31;16.90;99.90
13205;DHT22;6667;52.634;9.226;2023-08-17T19:59:57;16.90;99.90
13205;DHT22;6667;52.634;9.226;2023-08-17T20:02:24;16.90;99.90
13205;DHT22;6667;52.634;9.226;2023-08-17T20:04:52;16.80;99.90
13205;DHT22;6667;52.634;9.226;2023-08-17T20:07:19;16.80;99.90
13205;DHT22;6667;52.634;9.226;2023-08-17T20:09:45;16.80;99.90
13205;DHT22;6667;52.634;9.226;2023-08-17T20:12:12;16.80;99.90
13205;DHT22;6667;52.634;9.226;2023-08-17T20:14:39;16.80;99.90
13205;DHT22;6667;52.634;9.226;2023-08-17T20:17:05;16.80;99.90
13205;DHT22;6667;52.634;9.226;2023-08-17T20:19:33;16.90;99.90
13205;DHT22;6667;52.634;9.226;2023-08-17T20:22:01;16.80;99.90
13205;DHT22;6667;52.634;9.226;2023-08-17T20:24:28;16.80;99.90
13205;DHT22;6667;52.634;9.226;2023-08-17T20:26:54;16.80;99.90
13205;DHT22;6667;52.634;9.226;2023-08-17T20:29:21;16.80;99.90
13205;DHT22;6667;52.634;9.226;2023-08-17T20:31:48;16.80;99.90
13205;DHT22;6667;52.634;9.226;2023-08-17T20:34:15;16.70;99.90
13205;DHT22;6667;52.634;9.226;2023-08-17T20:36:42;16.80;99.90
13205;DHT22;6667;52.634;9.226;2023-08-17T20:39:10;16.80;99.90
13205;DHT22;6667;52.634;9.226;2023-08-17T20:41:37;16.80;99.90
13205;DHT22;6667;52.634;9.226;2023-08-17T20:44:05;16.70;99.90
13205;DHT22;6667;52.634;9.226;2023-08-17T20:46:32;16.70;99.90
13205;DHT22;6667;52.634;9.226;2023-08-17T20:48:59;16.70;99.90
13205;DHT22;6667;52.634;9.226;2023-08-17T20:51:26;16.70;99.90
13205;DHT22;6667;52.634;9.226;2023-08-17T20:53:53;16.70;99.90
13205;DHT22;6667;52.634;9.226;2023-08-17T20:56:21;16.70;99.90
13205;DHT22;6667;52.634;9.226;2023-08-17T20:58:48;16.60;99.90
13205;DHT22;6667;52.634;9.226;2023-08-17T21:01:15;16.70;99.90
13205;DHT22;6667;52.634;9.226;2023-08-17T21:03:44;16.60;99.90
13205;DHT22;6667;52.634;9.226;2023-08-17T21:06:12;16.60;99.90
13205;DHT22;6667;52.634;9.226;2023-08-17T21:08:38;16.60;99.90
13205;DHT22;6667;52.634;9.226;2023-08-17T21:11:05;16.60;99.90
13205;DHT22;6667;52.634;9.226;2023-08-17T21:13:34;16.60;99.90
13205;DHT22;6667;52.634;9.226;2023-08-17T21:16:03;16.60;99.90
13205;DHT22;6667;52.634;9.226;2023-08-17T21:18:30;16.60;99.90
13205;DHT22;6667;52.634;9.226;2023-08-17T21:20:57;16.60;99.90
13205;DHT22;6667;52.634;9.226;2023-08-17T21:23:23;16.60;99.90
13205;DHT22;6667;52.634;9.226;2023-08-17T21:25:50;16.70;99.90
13205;DHT22;6667;52.634;9.226;2023-08-17T21:28:17;16.60;99.90
13205;DHT22;6667;52.634;9.226;2023-08-17T21:30:45;16.60;99.90
13205;DHT22;6667;52.634;9.226;2023-08-17T21:33:12;16.60;99.90
13205;DHT22;6667;52.634;9.226;2023-08-17T21:35:39;16.60;99.90
13205;DHT22;6667;52.634;9.226;2023-08-17T21:38:05;16.60;99.90
13205;DHT22;6667;52.634;9.226;2023-08-17T21:40:32;16.60;99.90
13205;DHT22;6667;52.634;9.226;2023-08-17T21:42:59;16.60;99.90
13205;DHT22;6667;52.634;9.226;2023-08-17T21:45:26;16.60;99.90
13205;DHT22;6667;52.634;9.226;2023-08-17T21:47:54;16.60;99.90
13205;DHT22;6667;52.634;9.226;2023-08-17T21:50:20;16.60;99.90
13205;DHT22;6667;52.634;9.226;2023-08-17T21:52:47;16.60;99.90
13205;DHT22;6667;52.634;9.226;2023-08-17T21:55:14;16.60;99.90
13205;DHT22;6667;52.634;9.226;2023-08-17T21:57:41;16.60;99.90
13205;DHT22;6667;52.634;9.226;2023-08-17T22:00:08;16.60;99.90
13205;DHT22;6667;52.634;9.226;2023-08-17T22:02:35;16.60;99.90
13205;DHT22;6667;52.634;9.226;2023-08-17T22:05:03;16.60;99.90
13205;DHT22;6667;52.634;9.226;2023-08-17T22:07:30;16.60;99.90
13205;DHT22;6667;52.634;9.226;2023-08-17T22:09:56;16.60;99.90
13205;DHT22;6667;52.634;9.226;2023-08-17T22:12:23;16.60;99.90
13205;DHT22;6667;52.634;9.226;2023-08-17T22:14:50;16.60;99.90
13205;DHT22;6667;52.634;9.226;2023-08-17T22:17:17;16.60;99.90
13205;DHT22;6667;52.634;9.226;2023-08-17T22:19:43;16.60;99.90
13205;DHT22;6667;52.634;9.226;2023-08-17T22:22:12;16.60;99.90
13205;DHT22;6667;52.634;9.226;2023-08-17T22:24:38;16.60;99.90
13205;DHT22;6667;52.634;9.226;2023-08-17T22:27:07;16.60;99.90
13205;DHT22;6667;52.634;9.226;2023-08-17T22:29:34;16.50;99.90
13205;DHT22;6667;52.634;9.226;2023-08-17T22:32:00;16.50;99.90
13205;DHT22;6667;52.634;9.226;2023-08-17T22:34:27;16.60;99.90
13205;DHT22;6667;52.634;9.226;2023-08-17T22:36:54;16.60;99.90
